Time;durP1;ratioP1;P1;durP2;ratioP2;P2;SDS_P1;SDS_P2;PMS_P1;PMS_P2;Temp;Humidity;BMP_temperature;BMP_pressure;BME280_temperature;BME280_humidity;BME280_pressure;Samples;Min_cycle;Max_cycle;Signal;HPM_P1;HPM_P2
2023/07/31 00:00:27;;;;;;;2.60;1.60;;;;;;;;;;5027104;28;20033;-78
2023/07/31 00:02:52;;;;;;;2.63;1.60;;;;;;;;;;5018894;28;20406;-78
2023/07/31 00:05:17;;;;;;;2.83;1.80;;;;;;;;;;5021184;28;20031;-78
2023/07/31 00:07:43;;;;;;;3.88;2.03;;;;;;;;;;5020457;28;20041;-78
2023/07/31 00:10:08;;;;;;;8.85;2.20;;;;;;;;;;5016916;28;20560;-78
2023/07/31 00:12:34;;;;;;;3.40;1.90;;;;;;;;;;5030936;28;20036;-78
2023/07/31 00:14:59;;;;;;;3.67;2.13;;;;;;;;;;5040433;28;20544;-78
2023/07/31 00:17:24;;;;;;;3.40;2.00;;;;;;;;;;5019903;28;20037;-80
2023/07/31 00:19:50;;;;;;;6.78;1.95;;;;;;;;;;5037504;28;20052;-77
2023/07/31 00:22:16;;;;;;;2.67;2.10;;;;;;;;;;5018519;28;20053;-79
2023/07/31 00:24:41;;;;;;;3.92;2.13;;;;;;;;;;5034011;28;20453;-79
2023/07/31 00:27:06;;;;;;;5.32;1.70;;;;;;;;;;5022820;28;20516;-77
2023/07/31 00:29:32;;;;;;;4.45;2.15;;;;;;;;;;5016170;28;20227;-78
2023/07/31 00:31:57;;;;;;;2.72;2.00;;;;;;;;;;5016739;28;20029;-79
2023/07/31 00:34:22;;;;;;;4.28;1.90;;;;;;;;;;5024072;28;20037;-79
2023/07/31 00:36:48;;;;;;;3.33;2.05;;;;;;;;;;5034534;28;20038;-77
2023/07/31 00:39:13;;;;;;;9.18;2.55;;;;;;;;;;5018886;28;20133;-77
2023/07/31 00:41:39;;;;;;;3.70;2.13;;;;;;;;;;5036947;28;20026;-77
2023/07/31 00:44:04;;;;;;;2.53;1.90;;;;;;;;;;5022000;28;20052;-77
2023/07/31 00:46:29;;;;;;;2.40;2.20;;;;;;;;;;5019785;28;20046;-77
2023/07/31 00:48:55;;;;;;;6.88;2.40;;;;;;;;;;5023067;28;20038;-79
2023/07/31 00:51:20;;;;;;;6.82;2.15;;;;;;;;;;5019294;28;20022;-78
2023/07/31 00:53:47;;;;;;;3.58;2.45;;;;;;;;;;5033828;28;20393;-80
2023/07/31 00:56:12;;;;;;;2.63;2.05;;;;;;;;;;5016459;28;20056;-78
2023/07/31 00:58:37;;;;;;;2.90;2.20;;;;;;;;;;5012612;28;20059;-77
2023/07/31 01:01:03;;;;;;;3.97;2.10;;;;;;;;;;5026647;28;20096;-78
2023/07/31 01:03:28;;;;;;;3.58;2.05;;;;;;;;;;5016328;28;20042;-78
2023/07/31 01:06:22;;;;;;;6.28;2.10;;;;;;;;;;5014593;28;20145;-77
2023/07/31 01:09:02;;;;;;;4.97;2.70;;;;;;;;;;5019327;28;20042;-77
2023/07/31 01:11:30;;;;;;;5.80;2.28;;;;;;;;;;5016671;28;20033;-78
2023/07/31 01:13:57;;;;;;;2.75;2.38;;;;;;;;;;5014933;28;20037;-78
2023/07/31 01:16:22;;;;;;;5.03;2.70;;;;;;;;;;5013861;28;20022;-77
2023/07/31 01:18:47;;;;;;;6.93;2.42;;;;;;;;;;5017865;28;20046;-78
2023/07/31 01:21:40;;;;;;;2.60;2.10;;;;;;;;;;5027048;28;20061;-78
2023/07/31 01:24:40;;;;;;;2.63;2.30;;;;;;;;;;5016156;28;20124;-78
2023/07/31 01:27:12;;;;;;;3.25;2.08;;;;;;;;;;5019355;28;20018;-77
2023/07/31 01:29:49;;;;;;;5.40;2.47;;;;;;;;;;5018617;28;20053;-78
2023/07/31 01:32:17;;;;;;;5.43;2.55;;;;;;;;;;5029705;28;20045;-77
2023/07/31 01:34:44;;;;;;;4.38;2.50;;;;;;;;;;5015944;28;20038;-78
2023/07/31 01:37:09;;;;;;;6.00;2.70;;;;;;;;;;5018094;28;20072;-77
2023/07/31 01:39:34;;;;;;;4.53;2.58;;;;;;;;;;5020121;28;20054;-78
2023/07/31 01:41:59;;;;;;;6.20;2.35;;;;;;;;;;5023289;28;20022;-79
2023/07/31 01:44:25;;;;;;;2.70;2.20;;;;;;;;;;5027955;28;20085;-78
2023/07/31 01:46:50;;;;;;;2.05;1.90;;;;;;;;;;5022418;28;20112;-78
2023/07/31 01:49:15;;;;;;;4.28;2.35;;;;;;;;;;5028039;28;20069;-78
2023/07/31 01:51:41;;;;;;;2.35;2.00;;;;;;;;;;5025774;28;20041;-78
2023/07/31 01:54:06;;;;;;;5.32;2.20;;;;;;;;;;5030469;28;20021;-78
2023/07/31 01:56:32;;;;;;;4.50;2.53;;;;;;;;;;5025985;28;20393;-79
2023/07/31 01:58:57;;;;;;;3.35;2.40;;;;;;;;;;5024603;28;20144;-78
2023/07/31 02:01:22;;;;;;;5.20;2.30;;;;;;;;;;5020985;28;20034;-78
2023/07/31 02:03:47;;;;;;;2.85;1.80;;;;;;;;;;5039544;28;20081;-76
2023/07/31 02:06:13;;;;;;;6.07;2.30;;;;;;;;;;5025810;28;20033;-79
2023/07/31 02:08:38;;;;;;;6.22;1.98;;;;;;;;;;5040719;28;20588;-78
2023/07/31 02:11:04;;;;;;;3.53;2.20;;;;;;;;;;5026507;28;20057;-77
2023/07/31 02:13:29;;;;;;;8.40;2.83;;;;;;;;;;5028138;28;20034;-77
2023/07/31 02:15:54;;;;;;;5.10;2.00;;;;;;;;;;5019922;28;20092;-77
2023/07/31 02:18:20;;;;;;;5.15;2.38;;;;;;;;;;5025333;28;20021;-78
2023/07/31 02:20:52;;;;;;;2.75;2.15;;;;;;;;;;5020297;28;20026;-78
2023/07/31 02:23:19;;;;;;;3.58;2.10;;;;;;;;;;5021290;28;20133;-78
2023/07/31 02:25:45;;;;;;;3.47;2.20;;;;;;;;;;5024542;28;20044;-78
2023/07/31 02:28:11;;;;;;;9.90;2.95;;;;;;;;;;5022861;28;20120;-78
2023/07/31 02:30:36;;;;;;;2.67;1.95;;;;;;;;;;5020461;28;20045;-77
2023/07/31 02:33:02;;;;;;;3.47;2.28;;;;;;;;;;5038239;28;20053;-78
2023/07/31 02:35:27;;;;;;;5.57;2.65;;;;;;;;;;5018815;28;20486;-78
2023/07/31 02:37:53;;;;;;;2.22;2.03;;;;;;;;;;5020755;28;20228;-78
2023/07/31 02:40:18;;;;;;;5.32;2.30;;;;;;;;;;5017310;28;20128;-78
2023/07/31 02:42:43;;;;;;;6.25;2.55;;;;;;;;;;5018441;28;20068;-78
2023/07/31 02:45:09;;;;;;;7.78;2.50;;;;;;;;;;5020585;28;20026;-78
2023/07/31 02:47:34;;;;;;;3.63;2.00;;;;;;;;;;5020553;28;20025;-78
2023/07/31 02:49:59;;;;;;;3.28;2.45;;;;;;;;;;5037572;28;20036;-78
2023/07/31 02:52:25;;;;;;;6.43;2.42;;;;;;;;;;5034334;28;20034;-78
2023/07/31 02:54:50;;;;;;;3.28;2.30;;;;;;;;;;5019755;28;20049;-78
2023/07/31 02:57:16;;;;;;;3.97;2.55;;;;;;;;;;5023253;28;20030;-78
2023/07/31 02:59:41;;;;;;;2.83;2.40;;;;;;;;;;5022506;28;20018;-78
2023/07/31 03:02:07;;;;;;;8.32;2.80;;;;;;;;;;5019738;28;20034;-78
2023/07/31 03:04:32;;;;;;;4.78;2.67;;;;;;;;;;5019570;28;20343;-78
2023/07/31 03:06:57;;;;;;;6.25;2.95;;;;;;;;;;5022043;28;20728;-78
2023/07/31 03:09:22;;;;;;;9.30;2.95;;;;;;;;;;5029802;28;20089;-78
2023/07/31 03:11:48;;;;;;;4.95;2.75;;;;;;;;;;5033512;28;20033;-77
2023/07/31 03:14:16;;;;;;;5.93;2.83;;;;;;;;;;5025149;28;20068;-78
2023/07/31 03:16:45;;;;;;;4.43;2.83;;;;;;;;;;5016635;28;20049;-78
2023/07/31 03:19:10;;;;;;;6.75;3.00;;;;;;;;;;5017422;28;20183;-77
2023/07/31 03:21:35;;;;;;;3.72;2.72;;;;;;;;;;5030771;28;20615;-77
2023/07/31 03:24:01;;;;;;;5.93;3.20;;;;;;;;;;5020959;28;20413;-79
2023/07/31 03:26:26;;;;;;;4.10;2.97;;;;;;;;;;5024435;28;20033;-78
2023/07/31 03:28:51;;;;;;;4.70;3.15;;;;;;;;;;5026080;28;20030;-78
2023/07/31 03:31:16;;;;;;;7.22;3.45;;;;;;;;;;5034839;28;20049;-78
2023/07/31 03:33:42;;;;;;;6.00;3.78;;;;;;;;;;5023115;28;20043;-78
2023/07/31 03:36:07;;;;;;;6.60;3.53;;;;;;;;;;5038965;28;20463;-78
2023/07/31 03:38:33;;;;;;;4.45;3.60;;;;;;;;;;5038440;28;20021;-78
2023/07/31 03:40:59;;;;;;;7.22;3.72;;;;;;;;;;5017393;28;20502;-78
2023/07/31 03:43:24;;;;;;;5.70;3.70;;;;;;;;;;5022120;28;20038;-78
2023/07/31 03:45:50;;;;;;;7.18;3.22;;;;;;;;;;5036611;28;20096;-78
2023/07/31 03:48:16;;;;;;;9.02;4.25;;;;;;;;;;5023584;28;20618;-78
2023/07/31 03:50:41;;;;;;;6.10;3.90;;;;;;;;;;5023774;28;20108;-78
2023/07/31 03:53:07;;;;;;;9.82;3.80;;;;;;;;;;5024550;28;20036;-78
2023/07/31 03:55:32;;;;;;;6.82;4.30;;;;;;;;;;5015585;28;20026;-77
2023/07/31 03:57:57;;;;;;;4.95;4.03;;;;;;;;;;5014147;28;20038;-77
2023/07/31 04:00:23;;;;;;;10.05;3.90;;;;;;;;;;5013822;28;20052;-78
2023/07/31 04:02:48;;;;;;;8.68;3.90;;;;;;;;;;5012791;28;20022;-78
2023/07/31 04:05:13;;;;;;;8.38;4.50;;;;;;;;;;5039225;28;20033;-77
2023/07/31 04:07:39;;;;;;;6.47;3.75;;;;;;;;;;5015226;28;20037;-78
2023/07/31 04:10:04;;;;;;;9.90;3.90;;;;;;;;;;5032553;28;20049;-78
2023/07/31 04:12:30;;;;;;;8.40;3.70;;;;;;;;;;5017782;28;20053;-78
2023/07/31 04:14:55;;;;;;;3.40;3.05;;;;;;;;;;5020967;28;20065;-77
2023/07/31 04:17:20;;;;;;;5.75;3.60;;;;;;;;;;5021768;28;20172;-78
2023/07/31 04:19:46;;;;;;;9.27;3.47;;;;;;;;;;5016252;28;20147;-78
2023/07/31 04:22:11;;;;;;;5.50;3.33;;;;;;;;;;5019626;28;20561;-78
2023/07/31 04:24:36;;;;;;;6.15;3.38;;;;;;;;;;5031507;28;20052;-77
2023/07/31 04:27:02;;;;;;;4.05;3.10;;;;;;;;;;5016348;28;20028;-78
2023/07/31 04:29:27;;;;;;;6.60;3.35;;;;;;;;;;5038331;28;20063;-78
2023/07/31 04:31:52;;;;;;;7.75;3.22;;;;;;;;;;5022615;28;20063;-78
2023/07/31 04:34:18;;;;;;;4.82;3.60;;;;;;;;;;5015702;28;20042;-77
2023/07/31 04:36:43;;;;;;;9.40;3.35;;;;;;;;;;5019646;28;20045;-78
2023/07/31 04:39:08;;;;;;;8.48;2.70;;;;;;;;;;5015669;28;20025;-78
2023/07/31 04:41:34;;;;;;;6.50;3.10;;;;;;;;;;5016750;28;20034;-78
2023/07/31 04:43:59;;;;;;;8.23;2.90;;;;;;;;;;5016695;28;20034;-78
2023/07/31 04:46:24;;;;;;;3.13;2.40;;;;;;;;;;5019946;28;20034;-78
2023/07/31 04:48:50;;;;;;;3.83;2.40;;;;;;;;;;5019312;28;20068;-78
2023/07/31 04:51:15;;;;;;;3.47;2.40;;;;;;;;;;5013025;28;20022;-77
2023/07/31 04:53:41;;;;;;;5.93;2.63;;;;;;;;;;5030522;28;20052;-79
2023/07/31 04:56:06;;;;;;;9.85;2.05;;;;;;;;;;5017020;28;20113;-78
2023/07/31 04:58:32;;;;;;;4.13;1.98;;;;;;;;;;5021391;28;20114;-79
2023/07/31 05:00:57;;;;;;;3.72;2.08;;;;;;;;;;5018201;28;20040;-78
2023/07/31 05:03:22;;;;;;;3.95;1.98;;;;;;;;;;5018892;28;20119;-78
2023/07/31 05:05:48;;;;;;;3.13;2.17;;;;;;;;;;5014587;28;20486;-78
2023/07/31 05:08:13;;;;;;;4.82;1.88;;;;;;;;;;5018108;28;20040;-78
2023/07/31 05:10:38;;;;;;;2.78;1.90;;;;;;;;;;5015970;28;20382;-78
2023/07/31 05:13:04;;;;;;;6.05;2.70;;;;;;;;;;5016913;28;20033;-78
2023/07/31 05:15:29;;;;;;;5.00;2.00;;;;;;;;;;5034387;28;20785;-78
2023/07/31 05:17:55;;;;;;;5.57;2.00;;;;;;;;;;5020411;28;20030;-78
2023/07/31 05:20:21;;;;;;;3.78;2.25;;;;;;;;;;5021563;28;20022;-78
2023/07/31 05:22:46;;;;;;;2.53;1.80;;;;;;;;;;5011967;28;20409;-78
2023/07/31 05:25:12;;;;;;;3.15;2.00;;;;;;;;;;5038133;28;20033;-78
2023/07/31 05:27:37;;;;;;;4.90;1.90;;;;;;;;;;5013856;28;20074;-78
2023/07/31 05:30:03;;;;;;;5.38;1.90;;;;;;;;;;4929367;28;20025;-78
2023/07/31 05:32:28;;;;;;;4.03;1.70;;;;;;;;;;5022258;28;20042;-78
2023/07/31 05:34:53;;;;;;;2.10;1.90;;;;;;;;;;5023617;28;20075;-78
2023/07/31 05:37:19;;;;;;;2.67;1.98;;;;;;;;;;5035877;28;20084;-78
2023/07/31 05:39:44;;;;;;;2.38;1.80;;;;;;;;;;5024107;28;20046;-78
2023/07/31 05:42:10;;;;;;;2.60;1.70;;;;;;;;;;5017616;28;20022;-78
2023/07/31 05:44:35;;;;;;;3.67;1.85;;;;;;;;;;5027843;28;20079;-78
2023/07/31 05:47:00;;;;;;;2.92;1.85;;;;;;;;;;5025723;28;20133;-78
2023/07/31 05:49:26;;;;;;;6.13;2.03;;;;;;;;;;5017516;28;20045;-78
2023/07/31 05:51:51;;;;;;;3.88;2.13;;;;;;;;;;5038916;28;20038;-78
2023/07/31 05:54:16;;;;;;;2.92;1.63;;;;;;;;;;5041656;28;20081;-78
2023/07/31 05:56:42;;;;;;;1.80;1.70;;;;;;;;;;5035533;28;20029;-78
2023/07/31 05:59:09;;;;;;;5.38;1.83;;;;;;;;;;5026103;28;20420;-78
2023/07/31 06:01:38;;;;;;;4.10;1.85;;;;;;;;;;5023240;28;20025;-78
2023/07/31 06:04:03;;;;;;;2.92;2.00;;;;;;;;;;5040278;28;20401;-78
2023/07/31 06:06:28;;;;;;;2.63;1.50;;;;;;;;;;5025498;28;20033;-78
2023/07/31 06:08:54;;;;;;;3.17;1.67;;;;;;;;;;5036924;28;20576;-77
2023/07/31 06:11:20;;;;;;;3.10;1.70;;;;;;;;;;5037987;28;20580;-79
2023/07/31 06:13:47;;;;;;;4.45;1.70;;;;;;;;;;5023308;28;20033;-78
2023/07/31 06:16:13;;;;;;;2.20;1.73;;;;;;;;;;5024254;28;20056;-78
2023/07/31 06:18:38;;;;;;;4.80;1.95;;;;;;;;;;5041207;28;20037;-78
2023/07/31 06:21:03;;;;;;;4.20;1.85;;;;;;;;;;5025264;28;20056;-78
2023/07/31 06:23:29;;;;;;;3.47;1.80;;;;;;;;;;5026620;28;20406;-78
2023/07/31 06:25:54;;;;;;;3.35;1.83;;;;;;;;;;4961147;28;20028;-78
2023/07/31 06:28:19;;;;;;;2.00;1.58;;;;;;;;;;4997632;28;20590;-78
2023/07/31 06:30:45;;;;;;;3.97;1.80;;;;;;;;;;5022396;28;20029;-78
2023/07/31 06:33:10;;;;;;;5.28;2.05;;;;;;;;;;5022043;28;20021;-77
2023/07/31 06:35:35;;;;;;;6.63;2.10;;;;;;;;;;5023889;28;20048;-77
2023/07/31 06:38:02;;;;;;;4.32;1.75;;;;;;;;;;5024081;28;20034;-77
2023/07/31 06:40:27;;;;;;;4.50;2.00;;;;;;;;;;5036738;28;20456;-77
2023/07/31 06:42:52;;;;;;;2.22;1.73;;;;;;;;;;5022156;28;20038;-78
2023/07/31 06:45:18;;;;;;;2.50;1.90;;;;;;;;;;5019326;28;20121;-77
2023/07/31 06:47:43;;;;;;;2.25;1.90;;;;;;;;;;5035568;28;20444;-78
2023/07/31 06:50:08;;;;;;;3.72;1.88;;;;;;;;;;5037572;28;20038;-77
2023/07/31 06:52:34;;;;;;;4.28;1.67;;;;;;;;;;5017871;28;20046;-78
2023/07/31 06:55:15;;;;;;;5.10;2.00;;;;;;;;;;4980477;28;20082;-77
2023/07/31 06:57:40;;;;;;;9.35;2.35;;;;;;;;;;4919956;28;20047;-77
2023/07/31 07:00:06;;;;;;;6.00;2.00;;;;;;;;;;4922731;28;21218;-77
2023/07/31 07:02:32;;;;;;;2.90;1.75;;;;;;;;;;4925348;28;20024;-78
2023/07/31 07:04:57;;;;;;;3.28;1.92;;;;;;;;;;4989761;28;20042;-76
2023/07/31 07:07:22;;;;;;;4.70;1.70;;;;;;;;;;5010539;28;20030;-76
2023/07/31 07:09:47;;;;;;;1.98;1.75;;;;;;;;;;5024465;28;20042;-76
2023/07/31 07:12:13;;;;;;;4.95;2.28;;;;;;;;;;5021234;28;20220;-76
2023/07/31 07:14:38;;;;;;;2.50;1.95;;;;;;;;;;5021232;28;20026;-75
2023/07/31 07:17:04;;;;;;;5.50;1.90;;;;;;;;;;5021859;28;20037;-76
2023/07/31 07:19:29;;;;;;;5.65;2.08;;;;;;;;;;5021281;28;20093;-76
2023/07/31 07:21:54;;;;;;;4.60;1.58;;;;;;;;;;5017953;28;20037;-76
2023/07/31 07:24:20;;;;;;;5.60;1.73;;;;;;;;;;5013691;28;20120;-75
2023/07/31 07:26:45;;;;;;;9.27;2.08;;;;;;;;;;5016128;28;20021;-76
2023/07/31 07:29:10;;;;;;;4.40;1.75;;;;;;;;;;5022188;28;20080;-75
2023/07/31 07:31:36;;;;;;;3.35;1.77;;;;;;;;;;5023765;28;20033;-75
2023/07/31 07:34:02;;;;;;;4.88;2.30;;;;;;;;;;5028407;28;20480;-76
2023/07/31 07:36:28;;;;;;;6.20;1.65;;;;;;;;;;4998064;28;20218;-76
2023/07/31 07:38:53;;;;;;;5.10;1.48;;;;;;;;;;4923807;29;20292;-76
2023/07/31 07:41:18;;;;;;;6.13;1.77;;;;;;;;;;4920607;29;20044;-76
2023/07/31 07:43:43;;;;;;;3.63;1.90;;;;;;;;;;4918255;28;20036;-76
2023/07/31 07:46:09;;;;;;;1.90;1.20;;;;;;;;;;4922742;28;20554;-76
2023/07/31 07:48:34;;;;;;;5.10;1.67;;;;;;;;;;4914798;29;20130;-76
2023/07/31 07:50:59;;;;;;;1.52;1.40;;;;;;;;;;4930367;28;20399;-76
2023/07/31 07:53:25;;;;;;;2.20;1.55;;;;;;;;;;4926910;28;20071;-75
2023/07/31 07:55:50;;;;;;;3.97;1.70;;;;;;;;;;4924131;28;20414;-76
2023/07/31 07:58:15;;;;;;;2.45;1.42;;;;;;;;;;4990039;28;20045;-76
2023/07/31 08:00:40;;;;;;;3.80;1.98;;;;;;;;;;5023017;28;20434;-76
2023/07/31 08:03:06;;;;;;;2.85;1.50;;;;;;;;;;5017962;28;20013;-76
2023/07/31 08:05:34;;;;;;;5.93;1.98;;;;;;;;;;5023556;28;20037;-76
2023/07/31 08:07:59;;;;;;;4.07;1.38;;;;;;;;;;5021097;28;20033;-76
2023/07/31 08:10:24;;;;;;;6.50;1.80;;;;;;;;;;5022523;28;20048;-76
2023/07/31 08:12:50;;;;;;;4.70;1.42;;;;;;;;;;5022423;28;20209;-76
2023/07/31 08:15:15;;;;;;;3.30;1.88;;;;;;;;;;5022039;28;20029;-77
2023/07/31 08:17:40;;;;;;;4.13;1.73;;;;;;;;;;5026436;28;20504;-76
2023/07/31 08:20:06;;;;;;;4.93;1.58;;;;;;;;;;5027396;28;20053;-76
2023/07/31 08:22:32;;;;;;;8.65;2.00;;;;;;;;;;5024253;28;20037;-76
2023/07/31 08:24:57;;;;;;;4.18;1.60;;;;;;;;;;5025735;28;20049;-76
2023/07/31 08:27:22;;;;;;;4.88;2.00;;;;;;;;;;5024838;28;20072;-76
2023/07/31 08:29:47;;;;;;;6.05;1.90;;;;;;;;;;5041468;28;20116;-76
2023/07/31 08:32:13;;;;;;;3.22;1.77;;;;;;;;;;5024865;28;20038;-76
2023/07/31 08:34:38;;;;;;;2.03;1.45;;;;;;;;;;5024364;28;20041;-75
2023/07/31 08:37:03;;;;;;;2.55;1.50;;;;;;;;;;5021199;28;20045;-76
2023/07/31 08:39:29;;;;;;;6.50;1.70;;;;;;;;;;5022916;28;20122;-76
2023/07/31 08:41:59;;;;;;;4.32;1.80;;;;;;;;;;5038834;28;20103;-76
2023/07/31 08:44:25;;;;;;;3.08;1.80;;;;;;;;;;5024046;28;20112;-76
2023/07/31 08:46:50;;;;;;;9.10;1.80;;;;;;;;;;5019886;28;20513;-76
2023/07/31 08:49:20;;;;;;;5.28;1.77;;;;;;;;;;5020206;28;20045;-76
2023/07/31 08:51:46;;;;;;;4.15;2.25;;;;;;;;;;5021486;28;20524;-76
2023/07/31 08:54:12;;;;;;;5.07;1.67;;;;;;;;;;5015199;28;20540;-76
2023/07/31 08:56:37;;;;;;;3.88;1.40;;;;;;;;;;5022452;28;20033;-76
2023/07/31 08:59:04;;;;;;;2.88;1.65;;;;;;;;;;5016279;28;20627;-76
2023/07/31 09:01:31;;;;;;;3.47;1.73;;;;;;;;;;5035758;28;20117;-76
2023/07/31 09:03:59;;;;;;;6.68;1.83;;;;;;;;;;5022759;28;20489;-76
2023/07/31 09:06:26;;;;;;;5.93;1.85;;;;;;;;;;5019660;28;20118;-76
2023/07/31 09:08:52;;;;;;;5.20;1.88;;;;;;;;;;5023106;28;20029;-76
2023/07/31 09:11:18;;;;;;;3.22;1.60;;;;;;;;;;5037091;28;20393;-77
2023/07/31 09:13:45;;;;;;;4.07;1.73;;;;;;;;;;5017239;28;20025;-76
2023/07/31 09:16:11;;;;;;;12.60;1.80;;;;;;;;;;5018228;28;21027;-77
2023/07/31 09:18:54;;;;;;;7.82;2.15;;;;;;;;;;5017924;28;20389;-77
2023/07/31 09:21:19;;;;;;;6.60;1.70;;;;;;;;;;5023271;28;20022;-77
2023/07/31 09:23:47;;;;;;;4.22;1.80;;;;;;;;;;4919846;28;20622;-77
2023/07/31 09:26:35;;;;;;;3.17;1.70;;;;;;;;;;5006445;28;20060;-77
2023/07/31 09:29:04;;;;;;;3.08;1.80;;;;;;;;;;5016793;28;20460;-77
2023/07/31 09:31:47;;;;;;;1.50;1.40;;;;;;;;;;5016327;28;20041;-77
2023/07/31 09:34:13;;;;;;;7.90;1.95;;;;;;;;;;5018488;28;20046;-77
2023/07/31 09:36:47;;;;;;;4.10;1.70;;;;;;;;;;5015205;28;20033;-77
2023/07/31 09:39:15;;;;;;;2.42;1.80;;;;;;;;;;5015567;28;20280;-77
2023/07/31 09:41:44;;;;;;;2.58;1.40;;;;;;;;;;5011032;28;20361;-77
2023/07/31 09:44:09;;;;;;;3.90;1.85;;;;;;;;;;5016063;28;20049;-77
2023/07/31 09:46:37;;;;;;;2.58;1.80;;;;;;;;;;5015106;28;20378;-77
2023/07/31 09:49:05;;;;;;;2.80;1.88;;;;;;;;;;5016908;28;20030;-77
2023/07/31 09:51:31;;;;;;;1.60;1.50;;;;;;;;;;5033665;28;20095;-76
2023/07/31 09:53:56;;;;;;;5.18;2.22;;;;;;;;;;5018758;28;20493;-77
2023/07/31 09:56:23;;;;;;;4.38;1.70;;;;;;;;;;5016035;28;20034;-77
2023/07/31 09:58:50;;;;;;;2.90;1.77;;;;;;;;;;5018893;28;20036;-77
2023/07/31 10:01:15;;;;;;;8.27;1.80;;;;;;;;;;5017903;28;20040;-77
2023/07/31 10:03:41;;;;;;;4.15;1.90;;;;;;;;;;5018302;28;20061;-77
2023/07/31 10:06:09;;;;;;;1.85;1.70;;;;;;;;;;5013907;28;20086;-77
2023/07/31 10:08:37;;;;;;;4.72;1.80;;;;;;;;;;4928233;28;20399;-77
2023/07/31 10:11:03;;;;;;;2.15;1.63;;;;;;;;;;4924338;28;20105;-77
2023/07/31 10:13:30;;;;;;;2.17;1.70;;;;;;;;;;5003066;28;20065;-77
2023/07/31 10:15:59;;;;;;;2.03;1.58;;;;;;;;;;5023731;28;20063;-77
2023/07/31 10:18:25;;;;;;;4.88;1.80;;;;;;;;;;5021285;28;20041;-77
2023/07/31 10:20:52;;;;;;;6.93;2.08;;;;;;;;;;5021347;28;20059;-77
2023/07/31 10:23:18;;;;;;;3.67;1.70;;;;;;;;;;5018994;28;20033;-77
2023/07/31 10:25:44;;;;;;;3.65;1.80;;;;;;;;;;5021263;28;20103;-77
2023/07/31 10:28:10;;;;;;;3.13;1.90;;;;;;;;;;5021121;28;20029;-77
2023/07/31 10:30:38;;;;;;;3.47;2.17;;;;;;;;;;5036359;28;20038;-77
2023/07/31 10:33:05;;;;;;;3.00;1.48;;;;;;;;;;5025786;28;20674;-77
2023/07/31 10:35:30;;;;;;;2.65;1.80;;;;;;;;;;5018005;28;20082;-77
2023/07/31 10:38:09;;;;;;;6.25;1.70;;;;;;;;;;5034196;28;20505;-76
2023/07/31 10:40:36;;;;;;;4.88;1.90;;;;;;;;;;5018524;28;20706;-76
2023/07/31 10:43:02;;;;;;;2.70;2.00;;;;;;;;;;5021521;28;20053;-77
2023/07/31 10:45:33;;;;;;;4.28;1.80;;;;;;;;;;5020924;28;20512;-76
2023/07/31 10:48:19;;;;;;;1.50;1.40;;;;;;;;;;4921760;28;20055;-76
2023/07/31 10:50:48;;;;;;;5.85;1.73;;;;;;;;;;4918621;28;20055;-76
2023/07/31 10:53:40;;;;;;;8.10;1.98;;;;;;;;;;4992158;28;20124;-76
2023/07/31 10:56:10;;;;;;;4.00;1.90;;;;;;;;;;5018691;28;20034;-76
2023/07/31 10:58:36;;;;;;;2.42;1.60;;;;;;;;;;5019038;28;20349;-76
2023/07/31 11:01:03;;;;;;;4.97;1.63;;;;;;;;;;5019336;28;20037;-76
2023/07/31 11:03:43;;;;;;;2.50;1.95;;;;;;;;;;5032999;28;20091;-77
2023/07/31 11:06:09;;;;;;;6.80;1.80;;;;;;;;;;5032233;28;20115;-77
2023/07/31 11:08:40;;;;;;;2.60;1.73;;;;;;;;;;5021058;28;20481;-77
2023/07/31 11:11:08;;;;;;;2.58;1.67;;;;;;;;;;5035227;28;20046;-76
2023/07/31 11:13:39;;;;;;;2.42;1.65;;;;;;;;;;5036019;28;20444;-76
2023/07/31 11:16:04;;;;;;;3.10;1.77;;;;;;;;;;5032327;28;20053;-76
2023/07/31 11:18:29;;;;;;;5.03;1.83;;;;;;;;;;5017861;28;20034;-77
2023/07/31 11:20:55;;;;;;;3.20;1.55;;;;;;;;;;5022091;28;20088;-76
2023/07/31 11:23:22;;;;;;;3.40;1.73;;;;;;;;;;5018191;28;20445;-76
2023/07/31 11:25:48;;;;;;;4.50;2.22;;;;;;;;;;5017868;28;20129;-76
2023/07/31 11:28:14;;;;;;;2.70;1.95;;;;;;;;;;5018335;28;20451;-76
2023/07/31 11:30:41;;;;;;;1.73;1.50;;;;;;;;;;5019002;28;20461;-76
2023/07/31 11:33:08;;;;;;;1.98;1.60;;;;;;;;;;5034239;28;20529;-76
2023/07/31 11:35:36;;;;;;;3.55;1.73;;;;;;;;;;5016307;28;20036;-76
2023/07/31 11:38:02;;;;;;;1.80;1.70;;;;;;;;;;5017137;28;20042;-76
2023/07/31 11:40:31;;;;;;;2.78;1.50;;;;;;;;;;5016676;28;20116;-75
2023/07/31 11:43:04;;;;;;;3.65;1.83;;;;;;;;;;5020764;28;20476;-76
2023/07/31 11:45:30;;;;;;;1.65;1.55;;;;;;;;;;5014681;28;20099;-77
2023/07/31 11:47:56;;;;;;;2.85;1.85;;;;;;;;;;4933608;28;20546;-76
2023/07/31 11:50:25;;;;;;;2.05;1.80;;;;;;;;;;4922257;28;20090;-77
2023/07/31 11:53:00;;;;;;;2.15;1.60;;;;;;;;;;5009709;28;20115;-76
2023/07/31 11:55:26;;;;;;;4.18;1.73;;;;;;;;;;5020973;28;20493;-77
2023/07/31 11:57:53;;;;;;;4.15;1.90;;;;;;;;;;5034930;28;20044;-76
2023/07/31 12:00:18;;;;;;;5.07;2.00;;;;;;;;;;5020587;28;20630;-77
2023/07/31 12:02:44;;;;;;;1.70;1.60;;;;;;;;;;5019552;28;20030;-76
2023/07/31 12:05:12;;;;;;;3.28;1.70;;;;;;;;;;5018117;28;20038;-77
2023/07/31 12:07:44;;;;;;;3.30;1.80;;;;;;;;;;5020566;28;20451;-77
2023/07/31 12:10:09;;;;;;;4.22;1.80;;;;;;;;;;5018098;28;20061;-77
2023/07/31 12:12:34;;;;;;;2.38;1.70;;;;;;;;;;5014741;28;20670;-76
2023/07/31 12:14:59;;;;;;;3.50;1.92;;;;;;;;;;5016125;28;20532;-76
2023/07/31 12:17:25;;;;;;;3.00;2.00;;;;;;;;;;5023024;28;20401;-77
2023/07/31 12:19:50;;;;;;;3.45;1.83;;;;;;;;;;5007745;28;20029;-77
2023/07/31 12:22:16;;;;;;;1.42;1.33;;;;;;;;;;5016079;28;20356;-76
2023/07/31 12:24:44;;;;;;;4.15;1.90;;;;;;;;;;5018435;28;20049;-76
2023/07/31 12:27:12;;;;;;;5.88;1.70;;;;;;;;;;5021604;28;20108;-76
2023/07/31 12:29:38;;;;;;;1.90;1.50;;;;;;;;;;5019008;28;20480;-76
2023/07/31 12:32:04;;;;;;;4.13;1.88;;;;;;;;;;5017778;28;20041;-76
2023/07/31 12:34:29;;;;;;;4.93;1.80;;;;;;;;;;5013763;28;20044;-76
2023/07/31 12:36:54;;;;;;;1.60;1.50;;;;;;;;;;5015562;28;20117;-76
2023/07/31 12:39:20;;;;;;;1.70;1.60;;;;;;;;;;5017050;28;20025;-76
2023/07/31 12:41:45;;;;;;;4.63;1.95;;;;;;;;;;5018844;28;20052;-76
2023/07/31 12:44:11;;;;;;;1.95;1.67;;;;;;;;;;5018828;28;20052;-76
2023/07/31 12:46:36;;;;;;;7.32;1.60;;;;;;;;;;5019669;28;20037;-77
2023/07/31 12:49:02;;;;;;;2.33;1.50;;;;;;;;;;5017478;28;20037;-76
2023/07/31 12:51:27;;;;;;;3.47;1.83;;;;;;;;;;5029599;28;20042;-77
2023/07/31 12:53:52;;;;;;;2.78;1.92;;;;;;;;;;5014607;28;20040;-76
2023/07/31 12:56:18;;;;;;;2.17;1.70;;;;;;;;;;5018042;28;20521;-76
2023/07/31 12:58:43;;;;;;;1.83;1.73;;;;;;;;;;5033825;28;20029;-77
2023/07/31 13:01:08;;;;;;;1.63;1.52;;;;;;;;;;5017920;28;20068;-76
2023/07/31 13:03:34;;;;;;;1.52;1.40;;;;;;;;;;5020298;28;20088;-77
2023/07/31 13:05:59;;;;;;;9.32;1.60;;;;;;;;;;5016842;28;20017;-76
2023/07/31 13:08:24;;;;;;;2.22;1.60;;;;;;;;;;5015638;28;20115;-76
2023/07/31 13:10:50;;;;;;;2.92;1.50;;;;;;;;;;5017521;28;20041;-76
2023/07/31 13:13:15;;;;;;;1.60;1.50;;;;;;;;;;5034536;28;20045;-76
2023/07/31 13:15:41;;;;;;;2.60;1.73;;;;;;;;;;5018861;28;20042;-76
2023/07/31 13:18:06;;;;;;;2.75;1.63;;;;;;;;;;5021413;28;20401;-76
2023/07/31 13:20:31;;;;;;;8.10;1.60;;;;;;;;;;5036187;28;20049;-76
2023/07/31 13:22:56;;;;;;;2.80;1.60;;;;;;;;;;5019170;28;20066;-76
2023/07/31 13:25:22;;;;;;;4.45;1.80;;;;;;;;;;5036147;28;20439;-76
2023/07/31 13:27:47;;;;;;;3.03;1.55;;;;;;;;;;5021246;28;20041;-76
2023/07/31 13:30:12;;;;;;;2.13;1.70;;;;;;;;;;5019201;28;20092;-76
2023/07/31 13:32:38;;;;;;;2.15;1.65;;;;;;;;;;5019101;28;20021;-76
2023/07/31 13:35:07;;;;;;;3.60;1.52;;;;;;;;;;5022928;28;20034;-76
2023/07/31 13:37:33;;;;;;;2.03;1.67;;;;;;;;;;5020656;28;20037;-77
2023/07/31 13:39:58;;;;;;;4.90;1.60;;;;;;;;;;5036268;28;20045;-76
2023/07/31 13:42:24;;;;;;;3.00;1.30;;;;;;;;;;5021561;28;20041;-76
2023/07/31 13:44:49;;;;;;;1.63;1.35;;;;;;;;;;5021778;28;20603;-76
2023/07/31 13:47:14;;;;;;;2.58;1.40;;;;;;;;;;5026268;28;20071;-76
2023/07/31 13:49:41;;;;;;;1.40;1.30;;;;;;;;;;5040051;28;20037;-76
2023/07/31 13:52:07;;;;;;;1.77;1.52;;;;;;;;;;5023503;28;20494;-77
2023/07/31 13:54:32;;;;;;;1.65;1.45;;;;;;;;;;5023470;28;20044;-77
2023/07/31 13:56:57;;;;;;;1.65;1.50;;;;;;;;;;5023936;28;20048;-76
2023/07/31 13:59:23;;;;;;;2.63;1.40;;;;;;;;;;5025121;28;20040;-76
2023/07/31 14:01:49;;;;;;;1.60;1.50;;;;;;;;;;5021078;28;20052;-76
2023/07/31 14:04:15;;;;;;;4.93;1.30;;;;;;;;;;5024509;28;20046;-76
2023/07/31 14:06:40;;;;;;;2.95;1.50;;;;;;;;;;5024956;28;20041;-76
2023/07/31 14:09:06;;;;;;;4.63;1.40;;;;;;;;;;5022144;28;20026;-76
2023/07/31 14:11:32;;;;;;;3.22;1.20;;;;;;;;;;5021786;28;20026;-76
2023/07/31 14:13:57;;;;;;;5.93;1.52;;;;;;;;;;5020186;28;20176;-76
2023/07/31 14:16:23;;;;;;;1.20;1.20;;;;;;;;;;5039494;28;20103;-76
2023/07/31 14:18:48;;;;;;;0.95;0.95;;;;;;;;;;5022839;28;20033;-76
2023/07/31 14:21:13;;;;;;;1.00;1.00;;;;;;;;;;5022428;28;20025;-76
2023/07/31 14:23:39;;;;;;;1.30;1.20;;;;;;;;;;5023354;28;20049;-78
2023/07/31 14:26:05;;;;;;;2.90;1.17;;;;;;;;;;5024845;28;20049;-77
2023/07/31 14:28:30;;;;;;;2.65;1.20;;;;;;;;;;5024791;28;20505;-75
2023/07/31 14:30:55;;;;;;;1.20;1.20;;;;;;;;;;5035158;28;20048;-75
2023/07/31 14:33:21;;;;;;;1.88;1.42;;;;;;;;;;5025280;28;20507;-77
2023/07/31 14:35:46;;;;;;;1.65;1.52;;;;;;;;;;5037821;28;20112;-75
2023/07/31 14:38:11;;;;;;;1.30;1.20;;;;;;;;;;5023634;28;20405;-75